Time;durP1;ratioP1;P1;durP2;ratioP2;P2;SDS_P1;SDS_P2;PMS_P1;PMS_P2;Temp;Humidity;BMP_temperature;BMP_pressure;BME280_temperature;BME280_humidity;BME280_pressure;Samples;Min_cycle;Max_cycle;Signal;HPM_P1;HPM_P2
2022/02/10 00:21:32;;;;;;;;;72.00;58.00;;;;;6.28;81.30;101747.47;5123623;27;45281;-79
2022/02/10 00:34:58;;;;;;;;;70.25;56.50;;;;;6.39;80.35;101736.91;5123269;27;45460;-79
2022/02/10 00:37:36;;;;;;;;;72.00;58.00;;;;;6.45;80.28;101738.22;5123067;27;45498;-80
2022/02/10 00:40:10;;;;;;;;;70.25;57.25;;;;;6.51;80.44;101748.31;5123204;27;45373;-79
2022/02/10 00:42:35;;;;;;;;;73.50;58.25;;;;;6.55;80.49;101748.88;5123229;27;45485;-79
2022/02/10 00:45:01;;;;;;;;;71.50;56.25;;;;;6.52;80.33;101736.75;5123404;27;45301;-79
2022/02/10 00:47:28;;;;;;;;;70.00;57.25;;;;;6.59;80.42;101741.56;5121735;27;45991;-79
2022/02/10 00:49:57;;;;;;;;;67.25;54.00;;;;;6.58;80.36;101738.06;5123236;27;45357;-79
2022/02/10 00:52:22;;;;;;;;;67.50;54.25;;;;;6.63;80.51;101746.47;5123261;27;45147;-79
2022/02/10 00:54:48;;;;;;;;;70.75;57.50;;;;;6.66;80.60;101748.03;5121658;27;45209;-79
2022/02/10 00:57:13;;;;;;;;;69.75;56.00;;;;;6.65;80.29;101752.47;5123030;27;45253;-79
2022/02/10 01:00:34;;;;;;;;;75.75;58.50;;;;;6.64;80.44;101748.16;5122973;27;45236;-79
2022/02/10 01:13:21;;;;;;;;;68.50;55.25;;;;;6.71;81.10;101759.06;5122646;27;45259;-79
2022/02/10 01:29:42;;;;;;;;;65.00;51.50;;;;;6.84;80.93;101768.63;5101749;27;45456;-79
2022/02/10 01:32:09;;;;;;;;;63.75;51.75;;;;;6.86;81.42;101775.50;5101894;27;45325;-79
2022/02/10 01:34:39;;;;;;;;;69.25;54.75;;;;;6.88;81.02;101772.75;5101829;27;45240;-79
2022/02/10 01:37:04;;;;;;;;;28.25;25.25;;;;;6.95;81.31;101773.91;5100590;27;45353;-79
2022/02/10 01:39:35;;;;;;;;;64.75;52.75;;;;;6.84;81.30;101745.72;5101580;27;45340;-79
2022/02/10 02:03:40;;;;;;;;;65.50;52.50;;;;;7.11;82.17;101773.50;5101195;27;45410;-79
2022/02/10 02:06:18;;;;;;;;;60.50;49.75;;;;;7.16;81.94;101776.56;5099651;27;45288;-79
2022/02/10 02:08:44;;;;;;;;;56.25;47.25;;;;;7.18;81.81;101772.03;5101769;27;45348;-80
2022/02/10 02:11:09;;;;;;;;;58.25;47.25;;;;;7.28;83.39;101779.19;5101393;27;45466;-79
2022/02/10 02:13:35;;;;;;;;;54.50;44.75;;;;;7.33;83.07;101782.28;5102388;27;45357;-80
2022/02/10 02:16:01;;;;;;;;;54.00;44.25;;;;;7.36;83.21;101782.03;5101701;27;45359;-79
2022/02/10 02:18:26;;;;;;;;;54.25;44.25;;;;;7.29;83.19;101752.63;5112829;27;45456;-80
2022/02/10 02:20:54;;;;;;;;;53.00;44.25;;;;;7.47;83.19;101775.00;5120259;27;45339;-79
2022/02/10 02:23:22;;;;;;;;;54.50;45.75;;;;;7.51;83.06;101773.81;5123676;27;46477;-79
2022/02/10 02:25:51;;;;;;;;;54.75;44.25;;;;;7.53;83.06;101767.41;5120154;27;45783;-79
2022/02/10 02:28:17;;;;;;;;;58.00;47.75;;;;;7.51;83.40;101764.03;5124169;27;45184;-79
2022/02/10 02:30:51;;;;;;;;;54.50;45.25;;;;;7.55;83.59;101764.63;5122989;27;45213;-79
2022/02/10 03:05:52;;;;;;;;;52.75;41.75;;;;;7.83;84.05;101768.44;5121468;27;45762;-79
2022/02/10 03:08:19;;;;;;;;;50.25;40.50;;;;;7.86;83.89;101772.63;5123522;27;45359;-80
2022/02/10 03:13:14;;;;;;;;;53.75;43.50;;;;;7.78;83.68;101756.56;5122555;27;45313;-79
2022/02/10 03:18:42;;;;;;;;;53.75;43.50;;;;;7.74;83.49;101745.41;5113856;27;45315;-79
2022/02/10 04:08:11;;;;;;;;;28.75;28.00;;;;;7.63;83.22;101778.06;5076665;27;45226;-80
2022/02/10 04:10:48;;;;;;;;;27.33;25.00;;;;;7.69;83.82;101798.72;5105102;27;46103;-80
2022/02/10 04:13:33;;;;;;;;;33.67;31.00;;;;;7.57;83.37;101783.84;5107621;27;45367;-80
2022/02/10 04:16:14;;;;;;;;;32.00;29.75;;;;;7.57;83.06;101779.41;5108085;27;45332;-79
2022/02/10 04:19:30;;;;;;;;;34.50;31.50;;;;;7.63;83.36;101796.56;5116884;27;45372;-79
2022/02/10 04:29:51;;;;;;;;;38.00;33.25;;;;;7.66;83.55;101816.66;5127853;27;45255;-80
2022/02/10 05:54:38;;;;;;;;;44.25;37.50;;;;;7.28;84.30;101842.66;5122129;27;45309;-79
2022/02/10 07:07:28;;;;;;;;;43.00;37.50;;;;;7.27;83.68;101855.03;5100589;27;45244;-82
2022/02/10 07:10:17;;;;;;;;;48.75;38.00;;;;;7.39;83.26;101877.00;5099738;27;45271;-83
2022/02/10 07:15:59;;;;;;;;;45.25;36.75;;;;;7.39;83.52;101887.59;5098633;27;45394;-83
2022/02/10 07:53:55;;;;;;;;;41.25;36.50;;;;;7.54;82.46;101900.53;5120314;27;45270;-82
2022/02/10 09:00:55;;;;;;;;;45.75;37.50;;;;;8.07;82.10;101949.16;5102308;27;45223;-83
2022/02/10 09:06:20;;;;;;;;;46.50;37.75;;;;;8.27;81.59;101968.69;5102246;27;45501;-82
2022/02/10 09:17:14;;;;;;;;;41.25;36.50;;;;;8.20;81.09;101955.09;5028318;27;45467;-82
2022/02/10 10:01:03;;;;;;;;;46.00;38.25;;;;;8.91;79.35;101999.63;5102548;27;45472;-82
2022/02/10 10:03:37;;;;;;;;;40.00;35.25;;;;;8.99;79.20;102006.91;5095677;27;45308;-82
2022/02/10 10:06:25;;;;;;;;;48.75;39.00;;;;;9.00;79.08;102003.28;5105961;27;46081;-82
2022/02/10 10:09:18;;;;;;;;;47.75;39.75;;;;;8.94;78.78;101986.09;5105866;27;45572;-82
2022/02/10 10:15:21;;;;;;;;;38.00;34.75;;;;;9.14;78.91;101996.81;5101795;27;45301;-83
2022/02/10 10:18:33;;;;;;;;;45.00;36.25;;;;;9.13;78.69;101993.28;5107637;27;46178;-82
2022/02/10 10:26:40;;;;;;;;;45.25;36.50;;;;;9.42;78.60;101997.88;5122277;27;45292;-82
2022/02/10 10:54:37;;;;;;;;;41.50;35.00;;;;;9.90;76.63;102014.03;5121720;27;45305;-81
2022/02/10 10:57:12;;;;;;;;;43.25;37.00;;;;;9.87;76.65;102000.19;5121915;27;45371;-83
2022/02/10 11:00:06;;;;;;;;;35.50;32.75;;;;;9.82;76.17;101990.00;5121534;27;45378;-82
2022/02/10 11:41:50;;;;;;;;;40.25;34.75;;;;;10.52;74.18;101982.84;5110265;27;45240;-82
2022/02/10 11:44:45;;;;;;;;;37.75;32.50;;;;;10.44;73.89;101976.38;5110588;27;45562;-83
2022/02/10 13:26:36;;;;;;;;;29.33;26.67;;;;;11.22;70.00;101846.72;5101114;27;45354;-76
2022/02/10 14:17:02;;;;;;;;;24.33;22.33;;;;;10.20;77.35;101867.91;5072927;27;45558;-75
2022/02/10 14:22:07;;;;;;;;;32.33;30.67;;;;;9.96;77.50;101845.31;5096886;27;46041;-76
2022/02/10 14:27:18;;;;;;;;;30.00;29.67;;;;;9.91;78.54;101847.56;5100016;27;45674;-75
2022/02/10 14:29:44;;;;;;;;;27.67;26.33;;;;;9.95;78.79;101863.06;5079933;27;47072;-75
2022/02/10 14:32:11;;;;;;;;;21.00;19.67;;;;;9.98;78.50;101861.94;5098842;27;45323;-76
2022/02/10 14:34:37;;;;;;;;;19.33;17.00;;;;;9.92;79.30;101855.38;5079638;27;45397;-76
2022/02/10 14:37:22;;;;;;;;;21.67;21.67;;;;;9.42;78.96;101779.44;5098368;27;45399;-76
2022/02/10 14:39:58;;;;;;;;;26.33;24.33;;;;;9.59;79.39;101807.94;5080950;27;46264;-75
2022/02/10 15:32:30;;;;;;;;;26.00;23.00;;;;;10.69;79.70;101813.75;5099993;27;45307;-75
2022/02/10 15:56:03;;;;;;;;;25.67;25.00;;;;;10.68;79.58;101804.94;5119949;27;45238;-75
2022/02/10 16:17:15;;;;;;;;;25.00;24.33;;;;;10.39;79.71;101781.13;5118743;27;45255;-76
2022/02/10 16:19:42;;;;;;;;;25.67;24.00;;;;;10.53;80.05;101793.13;5099008;27;45251;-76
2022/02/10 16:25:03;;;;;;;;;28.33;27.67;;;;;10.54;80.12;101792.16;5100255;27;45310;-75
2022/02/10 16:27:30;;;;;;;;;29.67;27.33;;;;;10.50;80.01;101790.78;5102479;27;45475;-75
2022/02/10 16:30:04;;;;;;;;;32.67;31.33;;;;;10.39;80.28;101767.84;5102462;27;46457;-75
2022/02/10 16:32:31;;;;;;;;;34.00;31.50;;;;;10.43;80.05;101785.16;5084123;27;45343;-76
2022/02/10 16:34:57;;;;;;;;;39.25;34.75;;;;;10.36;80.16;101782.28;5102899;27;45273;-75
2022/02/10 16:37:24;;;;;;;;;39.75;35.50;;;;;10.19;80.12;101763.47;5102166;27;45325;-76
2022/02/10 16:39:50;;;;;;;;;38.50;35.25;;;;;10.23;80.40;101774.63;5083883;27;48427;-75
2022/02/10 16:42:16;;;;;;;;;40.75;33.25;;;;;10.26;80.34;101792.13;5083360;27;45279;-76
2022/02/10 16:44:44;;;;;;;;;37.50;34.00;;;;;10.13;80.46;101766.69;5102682;27;45214;-75
2022/02/10 16:47:10;;;;;;;;;34.25;30.25;;;;;10.23;80.42;101793.22;5099709;27;45276;-75
2022/02/10 16:49:38;;;;;;;;;34.50;32.00;;;;;10.09;80.61;101774.13;5097393;27;45596;-77
2022/02/10 16:52:07;;;;;;;;;36.50;32.75;;;;;10.18;80.61;101792.84;5075548;27;45281;-75
2022/02/10 16:54:38;;;;;;;;;32.00;30.00;;;;;10.05;80.48;101767.44;5074842;27;45189;-76
2022/02/10 16:59:40;;;;;;;;;33.00;28.67;;;;;10.11;80.36;101787.25;5122656;27;46068;-75
2022/02/10 17:18:27;;;;;;;;;29.67;27.00;;;;;9.78;80.63;101778.81;5113412;27;45248;-76
2022/02/10 17:28:40;;;;;;;;;29.67;26.67;;;;;9.79;81.30;101797.25;5101765;27;45322;-75
2022/02/10 17:31:24;;;;;;;;;36.25;33.25;;;;;9.67;81.14;101780.66;5101612;27;46090;-75
2022/02/10 17:34:22;;;;;;;;;37.50;32.50;;;;;9.56;81.13;101759.59;5101729;27;45277;-76
2022/02/10 17:44:48;;;;;;;;;38.75;34.00;;;;;9.79;81.81;101810.53;5101581;27;45322;-73
2022/02/10 17:52:56;;;;;;;;;23.75;19.50;;;;;9.76;82.28;101831.25;5107491;27;45264;-76
2022/02/10 17:55:22;;;;;;;;;37.75;33.50;;;;;9.74;82.49;101847.31;5121682;27;45396;-75
2022/02/10 17:57:47;;;;;;;;;36.00;33.00;;;;;9.62;83.04;101843.97;5121637;27;45398;-75
2022/02/10 18:00:13;;;;;;;;;27.33;24.67;;;;;9.49;82.44;101838.94;5121145;27;45516;-75
2022/02/10 18:02:38;;;;;;;;;14.33;11.67;;;;;9.41;82.18;101868.84;5122036;27;45231;-75
2022/02/10 18:05:05;;;;;;;;;10.33;9.00;;;;;9.23;82.15;101879.28;5122024;27;45269;-74
2022/02/10 18:07:31;;;;;;;;;9.33;9.33;;;;;9.01;82.03;101859.97;5103532;27;45178;-74
2022/02/10 18:10:26;;;;;;;;;10.00;7.00;;;;;8.84;82.60;101882.69;5092937;27;46213;-76
2022/02/10 18:15:23;;;;;;;;;2.00;2.00;;;;;8.43;82.10;101896.69;5101307;27;45212;-75
2022/02/10 18:17:55;;;;;;;;;5.00;5.00;;;;;8.19;82.97;101899.63;5082908;27;45516;-75
2022/02/10 18:20:27;;;;;;;;;6.33;6.00;;;;;8.11;83.05;101917.97;5100991;27;45263;-75
2022/02/10 18:23:17;;;;;;;;;6.00;5.33;;;;;8.00;83.52;101919.72;5100207;27;46200;-77
2022/02/10 18:34:08;;;;;;;;;5.00;5.00;;;;;7.75;83.67;101944.75;5094941;27;45428;-77
2022/02/10 19:09:06;;;;;;;;;6.00;5.67;;;;;7.36;84.46;102006.84;5120630;27;45306;-78
2022/02/10 19:11:32;;;;;;;;;3.00;3.00;;;;;7.36;84.20;102006.03;5121147;27;45203;-78
2022/02/10 19:14:03;;;;;;;;;1.00;1.00;;;;;7.33;83.85;102009.75;5121025;27;45450;-78
2022/02/10 19:16:28;;;;;;;;;2.67;2.67;;;;;7.28;83.13;102015.38;5120870;27;45161;-78
2022/02/10 19:18:54;;;;;;;;;1.67;1.67;;;;;7.18;83.48;102025.00;5105617;27;45256;-79
2022/02/10 19:21:19;;;;;;;;;2.00;2.00;;;;;7.05;83.85;102014.56;5081964;27;45413;-79
2022/02/10 19:23:45;;;;;;;;;1.67;1.67;;;;;7.04;83.52;102021.63;5079803;27;46996;-77
2022/02/10 19:26:10;;;;;;;;;2.00;2.00;;;;;7.14;83.70;102042.09;5081636;27;47041;-78
2022/02/10 19:28:35;;;;;;;;;3.00;3.00;;;;;7.06;83.66;102035.59;5096538;27;45402;-77
2022/02/10 19:31:02;;;;;;;;;2.00;2.00;;;;;7.09;83.61;102037.16;5103719;27;45459;-78
2022/02/10 19:33:27;;;;;;;;;2.67;2.67;;;;;6.96;83.75;102026.69;5099530;27;45376;-77
2022/02/10 19:35:53;;;;;;;;;5.00;3.67;;;;;7.07;83.47;102044.38;5098879;27;45309;-76
2022/02/10 19:38:22;;;;;;;;;42.75;36.50;;;;;6.87;84.10;102025.59;5080768;27;45389;-77
2022/02/10 19:40:52;;;;;;;;;41.75;36.75;;;;;7.04;83.90;102052.53;5094499;27;45350;-76
2022/02/10 19:43:19;;;;;;;;;25.25;23.50;;;;;7.03;83.84;102061.41;5099248;27;45259;-77
2022/02/10 19:45:45;;;;;;;;;64.00;50.50;;;;;6.87;83.47;102036.19;5098640;27;45903;-76
2022/02/10 19:48:10;;;;;;;;;27.75;26.25;;;;;6.97;83.77;102051.34;5099151;27;45313;-78
2022/02/10 19:50:36;;;;;;;;;28.50;26.50;;;;;6.82;83.97;102041.81;5075723;27;47278;-78
2022/02/10 19:53:06;;;;;;;;;14.67;14.67;;;;;6.86;83.58;102039.78;5096046;27;45374;-79
2022/02/10 19:55:34;;;;;;;;;10.33;8.00;;;;;7.02;84.29;102070.31;5077277;27;47647;-79
2022/02/10 19:58:06;;;;;;;;;3.67;3.00;;;;;6.91;83.78;102053.47;5101105;27;45480;-79
2022/02/10 20:00:38;;;;;;;;;3.33;3.33;;;;;6.87;83.68;102037.97;5080085;27;45219;-78
2022/02/10 20:03:17;;;;;;;;;2.00;2.00;;;;;6.98;83.78;102067.09;5081173;27;45396;-77
2022/02/10 20:05:45;;;;;;;;;3.67;2.67;;;;;6.89;84.07;102058.03;5083669;27;47178;-78
2022/02/10 20:08:13;;;;;;;;;4.00;4.00;;;;;6.60;83.75;102015.34;5093175;27;45368;-78
2022/02/10 20:10:39;;;;;;;;;4.33;2.00;;;;;6.82;83.87;102051.53;5092533;27;45417;-77
2022/02/10 20:13:04;;;;;;;;;5.00;5.00;;;;;6.87;84.31;102065.25;5091170;27;45229;-79
2022/02/10 20:15:33;;;;;;;;;3.00;3.00;;;;;6.80;84.15;102048.19;5085763;27;45315;-77
2022/02/10 20:18:04;;;;;;;;;33.00;32.75;;;;;6.92;84.24;102075.47;5093022;27;45371;-78
2022/02/10 20:20:30;;;;;;;;;13.67;13.33;;;;;6.88;84.27;102071.38;5071426;27;45273;-77
2022/02/10 20:22:55;;;;;;;;;7.00;6.00;;;;;6.90;84.54;102083.53;5093795;27;45425;-78
2022/02/10 20:25:21;;;;;;;;;6.00;5.00;;;;;6.66;84.14;102049.22;5091916;27;46352;-78
2022/02/10 20:27:47;;;;;;;;;5.00;5.00;;;;;6.65;84.24;102052.81;5093603;27;45208;-79
2022/02/10 20:30:13;;;;;;;;;7.00;7.00;;;;;6.83;85.00;102087.59;5086270;27;45334;-78
2022/02/10 20:32:38;;;;;;;;;5.67;5.67;;;;;6.80;84.37;102080.72;5091155;27;45256;-79
2022/02/10 20:35:06;;;;;;;;;12.00;12.00;;;;;6.80;84.99;102082.53;5068880;28;47171;-78
2022/02/10 20:37:31;;;;;;;;;9.67;7.33;;;;;6.66;85.29;102055.34;5063549;28;45340;-78
2022/02/10 20:39:57;;;;;;;;;33.25;28.00;;;;;6.69;84.62;102072.78;5080728;27;45413;-78
2022/02/10 20:42:23;;;;;;;;;21.33;17.33;;;;;6.84;84.94;102091.91;5093117;27;45347;-78
2022/02/10 20:44:53;;;;;;;;;13.67;13.67;;;;;6.84;84.86;102094.56;5083006;27;45335;-78
2022/02/10 20:47:21;;;;;;;;;16.67;15.33;;;;;6.87;85.34;102096.97;5067340;28;45402;-78
2022/02/10 20:49:47;;;;;;;;;13.33;12.67;;;;;6.90;85.44;102093.25;5072915;27;45359;-76
2022/02/10 20:52:14;;;;;;;;;11.67;11.67;;;;;6.91;85.04;102098.41;5061463;28;46228;-77
2022/02/10 20:54:39;;;;;;;;;7.67;7.67;;;;;6.97;84.91;102099.75;5080121;28;46171;-77
2022/02/10 20:57:05;;;;;;;;;9.33;8.00;;;;;6.87;85.11;102082.91;5080630;28;45351;-77
2022/02/10 20:59:36;;;;;;;;;9.33;9.33;;;;;6.93;85.24;102085.94;5063590;27;45362;-76
2022/02/10 21:02:12;;;;;;;;;8.00;8.00;;;;;6.96;84.57;102076.91;5080904;27;47228;-77
2022/02/10 21:04:45;;;;;;;;;8.67;8.67;;;;;7.03;84.64;102095.78;5082381;27;47274;-77
2022/02/10 21:09:50;;;;;;;;;21.33;20.00;;;;;6.94;84.83;102100.81;5120268;27;46016;-77
2022/02/10 21:12:16;;;;;;;;;16.00;15.33;;;;;6.94;84.95;102105.25;5122740;27;45266;-77
2022/02/10 21:14:43;;;;;;;;;8.00;8.00;;;;;6.93;84.26;102112.38;5122564;27;46242;-77
2022/02/10 21:17:11;;;;;;;;;8.33;8.33;;;;;6.99;84.59;102120.78;5104308;27;45405;-77
2022/02/10 21:19:38;;;;;;;;;12.00;10.33;;;;;6.90;84.22;102120.53;5101964;27;45369;-77
2022/02/10 21:22:11;;;;;;;;;7.00;7.00;;;;;6.92;84.16;102118.59;5102054;27;45460;-76
2022/02/10 21:24:42;;;;;;;;;7.67;6.33;;;;;6.93;85.09;102115.00;5101672;27;46221;-76
2022/02/10 21:29:59;;;;;;;;;11.67;11.67;;;;;6.82;84.55;102107.88;5101907;27;45220;-77
2022/02/10 21:32:27;;;;;;;;;12.67;11.67;;;;;6.91;84.64;102126.63;5083317;27;46566;-76
2022/02/10 21:59:09;;;;;;;;;12.00;12.00;;;;;6.48;84.77;102141.25;5101335;27;45348;-77
2022/02/10 22:19:21;;;;;;;;;9.67;9.67;;;;;6.35;85.39;102142.16;5100720;27;45314;-76
2022/02/10 22:21:53;;;;;;;;;11.33;11.33;;;;;6.37;84.43;102158.72;5082502;27;45472;-76
2022/02/10 22:24:20;;;;;;;;;13.33;12.00;;;;;6.27;85.00;102141.84;5082243;27;47271;-76
2022/02/10 22:26:46;;;;;;;;;13.67;12.33;;;;;6.06;84.63;102105.50;5101014;27;46071;-77
2022/02/10 22:36:28;;;;;;;;;19.67;17.00;;;;;6.21;85.13;102143.16;5090381;27;46212;-77
2022/02/10 22:39:00;;;;;;;;;15.67;15.67;;;;;6.34;84.69;102158.94;5062133;28;45351;-77
2022/02/10 22:41:25;;;;;;;;;16.00;16.00;;;;;6.36;85.19;102164.13;5062233;28;45506;-77
2022/02/10 22:43:52;;;;;;;;;20.33;18.00;;;;;6.39;85.31;102158.63;5080283;28;45411;-77
2022/02/10 22:46:19;;;;;;;;;24.75;23.75;;;;;6.32;85.38;102151.13;5080278;28;46210;-77
2022/02/10 22:48:46;;;;;;;;;27.25;24.25;;;;;6.26;85.29;102148.09;5080265;28;45221;-77
2022/02/10 22:51:13;;;;;;;;;19.00;17.25;;;;;6.35;85.11;102168.56;5080188;28;45472;-77
2022/02/10 22:53:39;;;;;;;;;20.75;18.50;;;;;6.36;84.96;102177.31;5061593;28;46305;-77
2022/02/10 22:56:09;;;;;;;;;23.50;22.50;;;;;6.24;85.44;102157.91;5079864;28;45383;-77
2022/02/10 22:58:37;;;;;;;;;23.50;21.75;;;;;6.34;85.07;102179.25;5080172;28;45233;-77
2022/02/10 23:01:03;;;;;;;;;23.75;21.00;;;;;6.12;84.66;102147.31;5080158;28;45276;-77
2022/02/10 23:03:28;;;;;;;;;18.75;17.00;;;;;6.21;84.86;102166.91;5079927;28;45301;-77
2022/02/10 23:05:55;;;;;;;;;17.00;15.33;;;;;6.20;84.98;102175.78;5079964;28;46196;-76
2022/02/10 23:08:21;;;;;;;;;17.00;17.00;;;;;6.07;84.89;102165.25;5080076;28;45309;-77
2022/02/10 23:10:49;;;;;;;;;20.33;20.33;;;;;6.14;84.70;102184.97;5079630;28;45409;-76
2022/02/10 23:13:15;;;;;;;;;17.67;17.67;;;;;6.03;84.59;102169.03;5061310;28;45995;-77
2022/02/10 23:15:42;;;;;;;;;17.67;17.00;;;;;5.84;84.50;102157.16;5061561;28;48233;-76
2022/02/10 23:18:13;;;;;;;;;16.50;15.75;;;;;6.03;84.70;102195.44;5079828;28;45293;-77
2022/02/10 23:20:39;;;;;;;;;22.00;19.33;;;;;6.00;84.51;102198.28;5061550;28;45281;-76
2022/02/10 23:23:08;;;;;;;;;18.00;16.67;;;;;5.85;84.79;102184.38;5061555;28;47084;-76
2022/02/10 23:25:37;;;;;;;;;19.67;18.00;;;;;5.90;84.83;102212.13;5079250;28;45603;-77
2022/02/10 23:28:05;;;;;;;;;19.00;18.25;;;;;5.73;85.15;102189.56;5079619;28;45453;-76
2022/02/10 23:30:31;;;;;;;;;19.00;16.25;;;;;5.83;85.27;102205.59;5061479;28;45266;-76
2022/02/10 23:33:03;;;;;;;;;16.33;14.33;;;;;5.71;84.96;102206.44;5079445;28;45253;-76
2022/02/10 23:38:15;;;;;;;;;16.33;15.33;;;;;5.55;85.27;102196.94;5103579;27;45345;-77
2022/02/10 23:43:39;;;;;;;;;17.33;17.33;;;;;5.55;85.64;102213.63;5079848;27;45407;-76
2022/02/10 23:46:04;;;;;;;;;15.67;14.33;;;;;5.65;85.35;102234.06;5084988;27;47166;-76
2022/02/10 23:48:32;;;;;;;;;17.00;16.33;;;;;5.63;85.27;102233.34;5103611;27;45296;-76
2022/02/10 23:50:58;;;;;;;;;22.33;16.00;;;;;5.50;85.53;102221.00;5103611;27;45275;-76
2022/02/10 23:53:24;;;;;;;;;18.00;16.33;;;;;5.55;85.20;102247.06;5103424;27;45265;-76
2022/02/10 23:55:50;;;;;;;;;19.00;15.33;;;;;5.52;85.37;102247.25;5103000;27;45199;-76
2022/02/10 23:58:31;;;;;;;;;18.00;17.33;;;;;5.46;85.03;102239.75;5103538;27;45245;-76
